createdAt,value
2018-12-26T00:03:02.029Z,2.45
2018-12-26T00:08:14.790Z,2.21
2018-12-26T00:13:23.375Z,2.16
2018-12-26T00:18:32.406Z,2.06
2018-12-26T00:23:45.877Z,1.93
2018-12-26T00:28:59.470Z,1.75
2018-12-26T00:34:07.657Z,1.74
2018-12-26T00:39:21.475Z,1.82
2018-12-26T00:44:34.086Z,1.74
2018-12-26T00:49:46.691Z,1.74
2018-12-26T00:54:59.382Z,1.59
2018-12-26T01:00:13.464Z,1.53
2018-12-26T01:05:22.391Z,1.52
2018-12-26T01:10:31.432Z,1.50
2018-12-26T01:15:39.640Z,1.57
2018-12-26T01:20:50.626Z,1.47
2018-12-26T01:26:03.463Z,1.53
2018-12-26T01:31:13.895Z,1.53
2018-12-26T01:36:26.988Z,1.47
2018-12-26T01:41:39.686Z,1.44
2018-12-26T01:46:50.465Z,1.42
2018-12-26T01:52:03.044Z,1.43
2018-12-26T01:57:15.755Z,1.51
2018-12-26T02:02:23.988Z,1.55
2018-12-26T02:07:35.045Z,1.48
2018-12-26T02:12:48.786Z,1.36
2018-12-26T02:18:01.059Z,1.32
2018-12-26T02:23:14.181Z,1.35
2018-12-26T02:28:28.103Z,1.38
2018-12-26T02:33:37.203Z,1.56
2018-12-26T02:38:51.591Z,1.64
2018-12-26T02:43:58.780Z,1.78
2018-12-26T02:49:13.425Z,1.78
2018-12-26T02:54:25.715Z,1.69
2018-12-26T02:59:38.484Z,1.78
2018-12-26T03:04:50.965Z,1.79
2018-12-26T03:10:02.671Z,1.84
2018-12-26T03:15:11.762Z,1.90
2018-12-26T03:20:26.253Z,1.94
2018-12-26T03:25:34.388Z,2.15
2018-12-26T03:30:47.406Z,2.24
2018-12-26T03:36:01.231Z,2.31
2018-12-26T03:41:31.535Z,2.24
2018-12-26T03:46:45.859Z,2.40
2018-12-26T03:51:58.649Z,2.45
2018-12-26T03:57:08.516Z,2.32
2018-12-26T04:02:19.430Z,2.46
2018-12-26T04:07:34.001Z,2.63
2018-12-26T04:12:48.226Z,2.65
2018-12-26T04:17:53.418Z,2.30
2018-12-26T04:23:04.263Z,2.35
2018-12-26T04:28:18.518Z,2.33
2018-12-26T04:33:26.347Z,2.51
2018-12-26T04:38:33.808Z,2.49
2018-12-26T04:43:47.595Z,2.36
2018-12-26T04:48:59.917Z,2.59
2018-12-26T04:54:10.209Z,2.65
2018-12-26T04:59:17.951Z,2.41
2018-12-26T05:04:27.878Z,2.43
2018-12-26T05:09:36.920Z,2.36
2018-12-26T05:14:47.883Z,2.29
2018-12-26T05:19:54.709Z,2.48
2018-12-26T05:25:01.701Z,2.40
2018-12-26T05:31:09.975Z,2.28
2018-12-26T05:36:18.223Z,2.32
2018-12-26T05:41:29.935Z,2.38
2018-12-26T05:46:41.659Z,2.68
2018-12-26T05:51:52.748Z,2.37
2018-12-26T05:57:00.404Z,2.69
2018-12-26T06:02:11.100Z,2.67
2018-12-26T06:07:20.086Z,2.80
2018-12-26T06:12:33.007Z,2.83
2018-12-26T06:17:41.198Z,2.84
2018-12-26T06:22:50.084Z,2.71
2018-12-26T06:28:03.796Z,2.56
2018-12-26T06:33:10.721Z,2.92
2018-12-26T06:38:19.279Z,2.92
2018-12-26T06:43:32.040Z,2.92
2018-12-26T06:48:41.913Z,2.85
2018-12-26T06:53:51.159Z,2.73
2018-12-26T06:59:03.247Z,2.86
2018-12-26T07:04:17.659Z,3.08
2018-12-26T07:09:33.007Z,2.83
2018-12-26T07:14:41.353Z,3.01
2018-12-26T07:19:53.743Z,3.00
2018-12-26T07:25:06.871Z,3.14
2018-12-26T07:30:17.366Z,3.07
2018-12-26T07:35:24.629Z,2.75
2018-12-26T07:40:37.373Z,2.64
2018-12-26T07:45:52.357Z,2.68
2018-12-26T07:51:04.113Z,2.82
2018-12-26T07:56:17.705Z,2.91
2018-12-26T08:01:25.444Z,2.82
2018-12-26T08:06:39.012Z,2.86
2018-12-26T08:11:47.353Z,2.67
2018-12-26T08:16:59.204Z,2.74
2018-12-26T08:22:08.358Z,2.64
2018-12-26T08:27:20.940Z,2.58
2018-12-26T08:32:32.585Z,2.77
2018-12-26T08:37:45.957Z,2.76
2018-12-26T08:42:58.722Z,2.87
2018-12-26T08:48:08.697Z,2.72
2018-12-26T08:53:21.312Z,2.92
2018-12-26T08:58:35.167Z,3.03
2018-12-26T09:03:36.930Z,2.99
2018-12-26T09:08:46.806Z,3.01
2018-12-26T09:13:55.826Z,2.92
2018-12-26T09:19:10.700Z,3.07
2018-12-26T09:24:24.105Z,2.96
2018-12-26T09:29:37.547Z,2.92
2018-12-26T09:34:46.019Z,2.98
2018-12-26T09:39:58.448Z,3.04
2018-12-26T09:45:12.487Z,3.00
2018-12-26T09:50:22.987Z,3.12
2018-12-26T09:55:30.238Z,3.23
2018-12-26T10:00:40.167Z,3.61
2018-12-26T10:05:51.143Z,3.45
2018-12-26T10:11:00.111Z,3.52
2018-12-26T10:16:12.646Z,3.60
2018-12-26T10:21:23.484Z,3.52
2018-12-26T10:26:33.411Z,3.64
2018-12-26T10:31:45.095Z,3.54
2018-12-26T10:36:57.783Z,3.51
2018-12-26T10:42:10.577Z,3.44
2018-12-26T10:47:21.934Z,3.84
2018-12-26T10:52:33.468Z,3.67
2018-12-26T10:57:45.217Z,3.73
2018-12-26T11:02:55.219Z,3.68
2018-12-26T11:08:28.996Z,3.73
2018-12-26T11:13:39.770Z,3.90
2018-12-26T11:18:52.841Z,3.98
2018-12-26T11:24:03.667Z,4.08
2018-12-26T11:29:18.486Z,4.13
2018-12-26T11:34:27.246Z,4.31
2018-12-26T11:39:40.009Z,4.23
2018-12-26T11:44:51.883Z,4.70
2018-12-26T11:50:04.872Z,4.67
2018-12-26T11:55:20.630Z,4.78
2018-12-26T12:00:33.181Z,4.60
2018-12-26T12:05:50.283Z,4.45
2018-12-26T12:10:57.890Z,4.50
2018-12-26T12:16:09.319Z,4.63
2018-12-26T12:21:17.956Z,4.60
2018-12-26T12:26:28.777Z,4.71
2018-12-26T12:31:41.193Z,4.43
2018-12-26T12:36:53.776Z,4.55
2018-12-26T12:42:07.270Z,4.90
2018-12-26T12:47:17.166Z,4.73
2018-12-26T12:52:29.767Z,4.83
2018-12-26T12:57:46.091Z,5.05
2018-12-26T13:03:00.616Z,5.02
2018-12-26T13:08:13.230Z,5.07
2018-12-26T13:13:24.294Z,4.99
2018-12-26T13:18:38.244Z,4.97
2018-12-26T13:23:45.975Z,4.97
2018-12-26T13:28:55.108Z,5.06
2018-12-26T13:34:03.682Z,5.06
2018-12-26T13:39:17.447Z,4.97
2018-12-26T13:44:29.927Z,5.22
2018-12-26T13:49:41.644Z,5.02
2018-12-26T13:54:53.416Z,5.11
2018-12-26T14:00:07.052Z,5.00
2018-12-26T14:05:15.459Z,4.96
2018-12-26T14:10:26.990Z,5.14
2018-12-26T14:15:36.882Z,5.17
2018-12-26T14:20:55.605Z,5.05
2018-12-26T14:26:08.485Z,5.16
2018-12-26T14:31:20.489Z,5.12
2018-12-26T14:36:28.878Z,5.18
2018-12-26T14:41:42.446Z,5.35
2018-12-26T14:46:50.429Z,5.22
2018-12-26T14:52:03.416Z,5.01
2018-12-26T14:57:22.153Z,5.18
2018-12-26T15:02:29.734Z,5.18
2018-12-26T15:07:44.138Z,5.16
2018-12-26T15:12:53.955Z,5.18
2018-12-26T15:18:06.280Z,5.18
2018-12-26T15:23:21.673Z,5.12
2018-12-26T15:28:34.655Z,5.18
2018-12-26T15:33:48.745Z,5.14
2018-12-26T15:38:57.823Z,5.01
2018-12-26T15:44:04.674Z,5.04
2018-12-26T15:49:13.782Z,5.26
2018-12-26T15:54:24.780Z,5.27
2018-12-26T15:59:42.599Z,5.25
2018-12-26T16:04:54.308Z,5.25
2018-12-26T16:10:05.406Z,5.00
2018-12-26T16:15:14.622Z,5.04
2018-12-26T16:20:25.872Z,5.02
2018-12-26T16:25:33.393Z,4.86
2018-12-26T16:30:46.541Z,4.71
2018-12-26T16:35:57.768Z,4.73
2018-12-26T16:41:09.549Z,5.04
2018-12-26T16:46:22.303Z,5.03
2018-12-26T16:51:31.703Z,4.97
2018-12-26T16:56:41.500Z,4.89
2018-12-26T17:01:54.789Z,5.01
2018-12-26T17:07:04.316Z,5.12
2018-12-26T17:12:15.044Z,4.90
2018-12-26T17:17:24.675Z,4.81
2018-12-26T17:22:36.550Z,4.76
2018-12-26T17:27:52.453Z,4.88
2018-12-26T17:33:06.005Z,4.93
2018-12-26T17:38:15.383Z,4.91
2018-12-26T17:43:28.883Z,4.90
2018-12-26T17:48:39.684Z,4.82
2018-12-26T17:54:28.143Z,4.52
2018-12-26T17:59:55.259Z,4.36
2018-12-26T18:05:10.435Z,4.28
2018-12-26T18:10:17.766Z,3.97
2018-12-26T18:15:28.722Z,3.96
2018-12-26T18:20:40.808Z,3.87
2018-12-26T18:25:53.363Z,3.82
2018-12-26T18:31:02.567Z,3.81
2018-12-26T18:36:19.891Z,3.82
2018-12-26T18:41:28.943Z,3.74
2018-12-26T18:46:41.798Z,3.67
2018-12-26T18:51:50.280Z,3.61
2018-12-26T18:57:02.181Z,3.50
2018-12-26T19:02:17.765Z,3.47
2018-12-26T19:07:25.169Z,3.43
2018-12-26T19:12:38.669Z,3.42
2018-12-26T19:17:54.001Z,3.42
2018-12-26T19:23:06.539Z,3.46
2018-12-26T19:28:20.578Z,3.59
2018-12-26T19:33:29.884Z,3.73
2018-12-26T19:38:41.387Z,3.69
2018-12-26T19:43:51.398Z,3.85
2018-12-26T19:49:01.470Z,3.75
2018-12-26T19:54:13.274Z,3.67
2018-12-26T19:59:22.437Z,3.63
2018-12-26T20:04:33.892Z,3.65
2018-12-26T20:09:41.920Z,3.78
2018-12-26T20:14:53.606Z,3.82
2018-12-26T20:20:01.474Z,3.80
2018-12-26T20:25:09.817Z,3.68
2018-12-26T20:30:18.956Z,3.77
2018-12-26T20:35:29.073Z,3.69
2018-12-26T20:40:38.887Z,3.76
2018-12-26T20:45:52.454Z,3.81
2018-12-26T20:50:59.807Z,3.77
2018-12-26T20:56:14.479Z,3.73
2018-12-26T21:01:25.252Z,3.72
2018-12-26T21:06:38.825Z,3.73
2018-12-26T21:11:51.817Z,3.78
2018-12-26T21:17:02.663Z,3.63
2018-12-26T21:22:14.438Z,3.63
2018-12-26T21:27:25.318Z,3.65
2018-12-26T21:32:36.968Z,3.45
2018-12-26T21:37:46.047Z,3.37
2018-12-26T21:42:56.965Z,3.39
2018-12-26T21:48:04.968Z,3.37
2018-12-26T21:53:19.318Z,3.36
2018-12-26T21:58:33.163Z,3.40
2018-12-26T22:03:42.507Z,3.40
2018-12-26T22:08:49.912Z,3.36
2018-12-26T22:13:58.075Z,3.37
2018-12-26T22:19:04.527Z,3.38
2018-12-26T22:24:14.624Z,3.28
2018-12-26T22:29:27.340Z,3.29
2018-12-26T22:34:38.093Z,3.32
2018-12-26T22:39:55.788Z,3.25
2018-12-26T22:45:06.578Z,3.12
2018-12-26T22:50:17.414Z,3.16
2018-12-26T22:55:29.957Z,3.28
2018-12-26T23:00:47.914Z,3.25
2018-12-26T23:06:03.690Z,3.07
2018-12-26T23:11:20.913Z,3.13
2018-12-26T23:16:33.928Z,3.28
2018-12-26T23:21:47.451Z,3.38
2018-12-26T23:27:00.004Z,3.47
2018-12-26T23:32:14.311Z,3.46
2018-12-26T23:37:27.962Z,3.43
2018-12-26T23:42:35.324Z,3.37
2018-12-26T23:47:45.028Z,3.29
2018-12-26T23:52:52.443Z,3.25
2018-12-26T23:58:07.199Z,3.21
